sensor_id;sensor_type;location;lat;lon;timestamp;P1;durP1;ratioP1;P2;durP2;ratioP2
77012;SDS011;67260;53.130;17.982;2024-03-22T00:02:57;23.00;;;14.10;;
77012;SDS011;67260;53.130;17.982;2024-03-22T00:05:33;25.50;;;14.40;;
77012;SDS011;67260;53.130;17.982;2024-03-22T00:08:03;24.10;;;14.10;;
77012;SDS011;67260;53.130;17.982;2024-03-22T00:14:52;25.70;;;14.10;;
77012;SDS011;67260;53.130;17.982;2024-03-22T00:18:34;25.20;;;14.20;;
77012;SDS011;67260;53.130;17.982;2024-03-22T00:21:27;23.60;;;13.50;;
77012;SDS011;67260;53.130;17.982;2024-03-22T00:24:59;25.30;;;13.90;;
77012;SDS011;67260;53.130;17.982;2024-03-22T00:43:40;32.70;;;17.00;;
77012;SDS011;67260;53.130;17.982;2024-03-22T00:46:35;31.10;;;16.70;;
77012;SDS011;67260;53.130;17.982;2024-03-22T00:49:53;33.00;;;16.40;;
77012;SDS011;67260;53.130;17.982;2024-03-22T00:52:34;36.50;;;18.10;;
77012;SDS011;67260;53.130;17.982;2024-03-22T00:56:07;35.40;;;17.40;;
77012;SDS011;67260;53.130;17.982;2024-03-22T00:58:48;33.30;;;17.10;;
77012;SDS011;67260;53.130;17.982;2024-03-22T01:02:23;33.10;;;16.60;;
77012;SDS011;67260;53.130;17.982;2024-03-22T01:11:30;34.50;;;17.40;;
77012;SDS011;67260;53.130;17.982;2024-03-22T01:24:28;39.60;;;17.80;;
77012;SDS011;67260;53.130;17.982;2024-03-22T01:37:41;40.00;;;17.70;;
77012;SDS011;67260;53.130;17.982;2024-03-22T01:44:04;41.00;;;18.70;;
77012;SDS011;67260;53.130;17.982;2024-03-22T01:47:02;40.20;;;18.10;;
77012;SDS011;67260;53.130;17.982;2024-03-22T01:49:53;42.50;;;19.00;;
77012;SDS011;67260;53.130;17.982;2024-03-22T01:53:42;45.70;;;20.50;;
77012;SDS011;67260;53.130;17.982;2024-03-22T01:56:12;49.60;;;21.50;;
77012;SDS011;67260;53.130;17.982;2024-03-22T01:58:55;53.20;;;22.00;;
77012;SDS011;67260;53.130;17.982;2024-03-22T02:05:38;45.70;;;19.90;;
77012;SDS011;67260;53.130;17.982;2024-03-22T02:09:08;48.00;;;21.10;;
77012;SDS011;67260;53.130;17.982;2024-03-22T02:30:54;44.50;;;18.30;;
77012;SDS011;67260;53.130;17.982;2024-03-22T02:40:59;43.00;;;18.50;;
77012;SDS011;67260;53.130;17.982;2024-03-22T02:44:30;40.70;;;17.70;;
77012;SDS011;67260;53.130;17.982;2024-03-22T02:47:38;41.90;;;18.90;;
77012;SDS011;67260;53.130;17.982;2024-03-22T03:51:59;47.20;;;19.80;;
77012;SDS011;67260;53.130;17.982;2024-03-22T05:06:42;35.90;;;16.10;;
77012;SDS011;67260;53.130;17.982;2024-03-22T05:34:38;26.60;;;12.90;;
77012;SDS011;67260;53.130;17.982;2024-03-22T05:37:21;26.10;;;11.50;;
77012;SDS011;67260;53.130;17.982;2024-03-22T05:39:55;23.80;;;11.90;;
77012;SDS011;67260;53.130;17.982;2024-03-22T05:42:47;24.50;;;11.00;;
77012;SDS011;67260;53.130;17.982;2024-03-22T05:45:36;24.00;;;11.90;;
77012;SDS011;67260;53.130;17.982;2024-03-22T05:49:09;24.20;;;11.40;;
77012;SDS011;67260;53.130;17.982;2024-03-22T05:51:52;24.90;;;12.20;;
77012;SDS011;67260;53.130;17.982;2024-03-22T05:54:28;23.30;;;11.10;;
77012;SDS011;67260;53.130;17.982;2024-03-22T06:07:57;22.50;;;11.10;;
77012;SDS011;67260;53.130;17.982;2024-03-22T06:35:04;24.00;;;11.00;;
77012;SDS011;67260;53.130;17.982;2024-03-22T07:02:15;24.30;;;13.20;;
77012;SDS011;67260;53.130;17.982;2024-03-22T07:05:08;22.50;;;11.90;;
77012;SDS011;67260;53.130;17.982;2024-03-22T07:07:36;21.70;;;11.10;;
77012;SDS011;67260;53.130;17.982;2024-03-22T07:10:03;22.80;;;11.40;;
77012;SDS011;67260;53.130;17.982;2024-03-22T07:26:02;20.30;;;11.30;;
77012;SDS011;67260;53.130;17.982;2024-03-22T07:31:49;22.20;;;12.60;;
77012;SDS011;67260;53.130;17.982;2024-03-22T07:34:19;22.10;;;11.50;;
77012;SDS011;67260;53.130;17.982;2024-03-22T07:37:05;19.90;;;10.40;;
77012;SDS011;67260;53.130;17.982;2024-03-22T07:39:32;21.30;;;11.30;;
77012;SDS011;67260;53.130;17.982;2024-03-22T07:41:59;22.60;;;11.70;;
77012;SDS011;67260;53.130;17.982;2024-03-22T07:44:26;21.40;;;11.10;;
77012;SDS011;67260;53.130;17.982;2024-03-22T07:46:55;22.20;;;12.10;;
77012;SDS011;67260;53.130;17.982;2024-03-22T07:49:21;23.00;;;13.00;;
77012;SDS011;67260;53.130;17.982;2024-03-22T07:51:48;27.20;;;13.40;;
77012;SDS011;67260;53.130;17.982;2024-03-22T07:56:41;24.50;;;13.40;;
77012;SDS011;67260;53.130;17.982;2024-03-22T07:59:12;24.60;;;14.00;;
77012;SDS011;67260;53.130;17.982;2024-03-22T08:01:39;30.70;;;16.70;;
77012;SDS011;67260;53.130;17.982;2024-03-22T08:04:06;21.20;;;12.20;;
77012;SDS011;67260;53.130;17.982;2024-03-22T08:06:44;25.30;;;13.90;;
77012;SDS011;67260;53.130;17.982;2024-03-22T08:09:14;24.10;;;12.50;;
77012;SDS011;67260;53.130;17.982;2024-03-22T08:11:45;26.50;;;15.10;;
77012;SDS011;67260;53.130;17.982;2024-03-22T08:14:12;22.20;;;12.10;;
77012;SDS011;67260;53.130;17.982;2024-03-22T08:16:39;20.60;;;12.40;;
77012;SDS011;67260;53.130;17.982;2024-03-22T08:19:05;20.20;;;10.80;;
77012;SDS011;67260;53.130;17.982;2024-03-22T08:21:32;25.80;;;13.00;;
77012;SDS011;67260;53.130;17.982;2024-03-22T08:24:10;25.40;;;15.30;;
77012;SDS011;67260;53.130;17.982;2024-03-22T08:26:36;22.90;;;13.10;;
77012;SDS011;67260;53.130;17.982;2024-03-22T08:29:06;23.30;;;12.40;;
77012;SDS011;67260;53.130;17.982;2024-03-22T08:31:35;23.90;;;13.20;;
77012;SDS011;67260;53.130;17.982;2024-03-22T08:34:08;25.40;;;14.00;;
77012;SDS011;67260;53.130;17.982;2024-03-22T08:36:38;21.80;;;12.60;;
77012;SDS011;67260;53.130;17.982;2024-03-22T08:39:05;24.20;;;13.30;;
77012;SDS011;67260;53.130;17.982;2024-03-22T08:41:33;23.80;;;13.20;;
77012;SDS011;67260;53.130;17.982;2024-03-22T08:46:33;20.80;;;11.30;;
77012;SDS011;67260;53.130;17.982;2024-03-22T08:49:04;22.80;;;12.50;;
77012;SDS011;67260;53.130;17.982;2024-03-22T08:51:32;23.70;;;12.80;;
77012;SDS011;67260;53.130;17.982;2024-03-22T08:56:59;34.60;;;20.00;;
77012;SDS011;67260;53.130;17.982;2024-03-22T08:59:29;38.70;;;23.90;;
77012;SDS011;67260;53.130;17.982;2024-03-22T09:01:58;20.60;;;12.50;;
77012;SDS011;67260;53.130;17.982;2024-03-22T09:04:40;36.60;;;22.70;;
77012;SDS011;67260;53.130;17.982;2024-03-22T09:07:10;23.80;;;14.40;;
77012;SDS011;67260;53.130;17.982;2024-03-22T09:09:40;21.90;;;12.90;;
77012;SDS011;67260;53.130;17.982;2024-03-22T09:12:19;29.60;;;18.10;;
77012;SDS011;67260;53.130;17.982;2024-03-22T09:15:22;18.50;;;11.30;;
77012;SDS011;67260;53.130;17.982;2024-03-22T09:18:00;19.20;;;12.10;;
77012;SDS011;67260;53.130;17.982;2024-03-22T09:20:27;17.90;;;11.60;;
77012;SDS011;67260;53.130;17.982;2024-03-22T09:23:01;19.90;;;11.20;;
77012;SDS011;67260;53.130;17.982;2024-03-22T09:48:33;26.40;;;14.60;;
77012;SDS011;67260;53.130;17.982;2024-03-22T09:51:26;22.90;;;14.30;;
77012;SDS011;67260;53.130;17.982;2024-03-22T09:57:09;23.30;;;14.00;;
77012;SDS011;67260;53.130;17.982;2024-03-22T09:59:52;19.80;;;13.60;;
77012;SDS011;67260;53.130;17.982;2024-03-22T10:02:18;19.20;;;13.40;;
77012;SDS011;67260;53.130;17.982;2024-03-22T10:05:17;17.30;;;12.10;;
77012;SDS011;67260;53.130;17.982;2024-03-22T10:07:53;18.70;;;13.30;;
77012;SDS011;67260;53.130;17.982;2024-03-22T10:10:26;19.20;;;12.50;;
77012;SDS011;67260;53.130;17.982;2024-03-22T10:20:33;22.30;;;14.10;;
77012;SDS011;67260;53.130;17.982;2024-03-22T10:23:32;18.90;;;12.20;;
77012;SDS011;67260;53.130;17.982;2024-03-22T10:25:57;19.70;;;12.60;;
77012;SDS011;67260;53.130;17.982;2024-03-22T10:28:51;20.60;;;13.00;;
77012;SDS011;67260;53.130;17.982;2024-03-22T10:31:36;19.60;;;12.50;;
77012;SDS011;67260;53.130;17.982;2024-03-22T10:34:06;20.20;;;13.20;;
77012;SDS011;67260;53.130;17.982;2024-03-22T10:36:37;20.60;;;12.80;;
77012;SDS011;67260;53.130;17.982;2024-03-22T10:39:13;18.40;;;11.80;;
77012;SDS011;67260;53.130;17.982;2024-03-22T10:42:17;17.60;;;12.10;;
77012;SDS011;67260;53.130;17.982;2024-03-22T10:44:51;18.90;;;12.10;;
77012;SDS011;67260;53.130;17.982;2024-03-22T10:47:21;20.40;;;12.70;;
77012;SDS011;67260;53.130;17.982;2024-03-22T10:50:05;21.90;;;13.00;;
77012;SDS011;67260;53.130;17.982;2024-03-22T10:52:52;19.40;;;12.50;;
77012;SDS011;67260;53.130;17.982;2024-03-22T10:56:06;19.10;;;11.50;;
77012;SDS011;67260;53.130;17.982;2024-03-22T10:59:14;20.80;;;12.50;;
77012;SDS011;67260;53.130;17.982;2024-03-22T11:04:58;20.90;;;12.30;;
77012;SDS011;67260;53.130;17.982;2024-03-22T11:07:29;21.10;;;11.80;;
77012;SDS011;67260;53.130;17.982;2024-03-22T11:10:06;19.90;;;11.20;;
77012;SDS011;67260;53.130;17.982;2024-03-22T11:13:00;19.90;;;11.70;;
77012;SDS011;67260;53.130;17.982;2024-03-22T11:15:29;22.20;;;13.20;;
77012;SDS011;67260;53.130;17.982;2024-03-22T11:18:13;19.50;;;11.80;;
77012;SDS011;67260;53.130;17.982;2024-03-22T11:20:40;22.50;;;12.80;;
77012;SDS011;67260;53.130;17.982;2024-03-22T11:23:08;20.30;;;12.20;;
77012;SDS011;67260;53.130;17.982;2024-03-22T11:25:52;20.10;;;11.20;;
77012;SDS011;67260;53.130;17.982;2024-03-22T11:31:48;22.00;;;12.00;;
77012;SDS011;67260;53.130;17.982;2024-03-22T11:34:28;22.20;;;12.20;;
77012;SDS011;67260;53.130;17.982;2024-03-22T11:37:08;19.50;;;12.10;;
77012;SDS011;67260;53.130;17.982;2024-03-22T11:39:39;23.20;;;12.20;;
77012;SDS011;67260;53.130;17.982;2024-03-22T11:42:09;20.40;;;12.30;;
77012;SDS011;67260;53.130;17.982;2024-03-22T11:44:37;23.80;;;13.10;;
77012;SDS011;67260;53.130;17.982;2024-03-22T11:47:09;23.30;;;13.10;;
77012;SDS011;67260;53.130;17.982;2024-03-22T11:49:36;22.20;;;13.00;;
77012;SDS011;67260;53.130;17.982;2024-03-22T11:52:27;20.80;;;12.90;;
77012;SDS011;67260;53.130;17.982;2024-03-22T11:55:04;21.30;;;13.00;;
77012;SDS011;67260;53.130;17.982;2024-03-22T11:57:35;22.80;;;13.30;;
77012;SDS011;67260;53.130;17.982;2024-03-22T12:00:03;23.90;;;13.50;;
77012;SDS011;67260;53.130;17.982;2024-03-22T12:02:57;23.50;;;13.10;;
77012;SDS011;67260;53.130;17.982;2024-03-22T12:05:26;23.20;;;13.10;;
77012;SDS011;67260;53.130;17.982;2024-03-22T12:08:04;22.80;;;13.30;;
77012;SDS011;67260;53.130;17.982;2024-03-22T12:10:36;21.40;;;13.20;;
77012;SDS011;67260;53.130;17.982;2024-03-22T12:13:02;22.30;;;12.60;;
77012;SDS011;67260;53.130;17.982;2024-03-22T12:15:30;22.50;;;12.70;;
77012;SDS011;67260;53.130;17.982;2024-03-22T12:18:07;20.70;;;12.60;;
77012;SDS011;67260;53.130;17.982;2024-03-22T12:20:38;20.30;;;13.20;;
77012;SDS011;67260;53.130;17.982;2024-03-22T12:23:12;20.20;;;11.40;;
77012;SDS011;67260;53.130;17.982;2024-03-22T12:26:06;23.80;;;13.10;;
77012;SDS011;67260;53.130;17.982;2024-03-22T12:28:53;21.10;;;12.30;;
77012;SDS011;67260;53.130;17.982;2024-03-22T12:34:33;20.80;;;12.70;;
77012;SDS011;67260;53.130;17.982;2024-03-22T12:37:02;21.80;;;13.00;;
77012;SDS011;67260;53.130;17.982;2024-03-22T12:39:34;20.90;;;13.40;;
77012;SDS011;67260;53.130;17.982;2024-03-22T12:42:12;19.70;;;12.70;;
77012;SDS011;67260;53.130;17.982;2024-03-22T12:45:52;20.60;;;13.10;;
77012;SDS011;67260;53.130;17.982;2024-03-22T12:48:43;19.90;;;12.00;;
77012;SDS011;67260;53.130;17.982;2024-03-22T12:51:27;21.90;;;13.80;;
77012;SDS011;67260;53.130;17.982;2024-03-22T13:07:41;23.70;;;14.50;;
77012;SDS011;67260;53.130;17.982;2024-03-22T13:10:17;27.00;;;15.30;;
77012;SDS011;67260;53.130;17.982;2024-03-22T13:12:48;27.30;;;16.30;;
77012;SDS011;67260;53.130;17.982;2024-03-22T13:15:25;27.70;;;15.80;;
77012;SDS011;67260;53.130;17.982;2024-03-22T13:27:46;25.90;;;15.50;;
77012;SDS011;67260;53.130;17.982;2024-03-22T13:30:27;23.20;;;13.20;;
77012;SDS011;67260;53.130;17.982;2024-03-22T13:32:57;21.50;;;13.40;;
77012;SDS011;67260;53.130;17.982;2024-03-22T13:39:09;20.90;;;12.80;;
77012;SDS011;67260;53.130;17.982;2024-03-22T13:41:46;22.40;;;12.60;;
77012;SDS011;67260;53.130;17.982;2024-03-22T13:44:14;20.80;;;12.00;;
77012;SDS011;67260;53.130;17.982;2024-03-22T13:46:41;22.30;;;13.40;;
77012;SDS011;67260;53.130;17.982;2024-03-22T13:49:15;24.80;;;12.30;;
77012;SDS011;67260;53.130;17.982;2024-03-22T13:54:38;22.60;;;12.80;;
77012;SDS011;67260;53.130;17.982;2024-03-22T13:57:07;31.40;;;16.10;;
77012;SDS011;67260;53.130;17.982;2024-03-22T13:59:37;22.00;;;13.30;;
77012;SDS011;67260;53.130;17.982;2024-03-22T14:02:08;22.40;;;12.10;;
77012;SDS011;67260;53.130;17.982;2024-03-22T14:04:35;31.40;;;15.20;;
77012;SDS011;67260;53.130;17.982;2024-03-22T14:07:02;44.60;;;21.80;;
77012;SDS011;67260;53.130;17.982;2024-03-22T14:09:34;33.70;;;17.80;;
77012;SDS011;67260;53.130;17.982;2024-03-22T14:12:01;39.70;;;21.40;;
77012;SDS011;67260;53.130;17.982;2024-03-22T14:14:41;24.50;;;14.20;;
77012;SDS011;67260;53.130;17.982;2024-03-22T14:17:10;24.10;;;13.60;;
77012;SDS011;67260;53.130;17.982;2024-03-22T14:19:38;21.30;;;12.20;;
77012;SDS011;67260;53.130;17.982;2024-03-22T14:22:05;24.30;;;13.90;;
77012;SDS011;67260;53.130;17.982;2024-03-22T14:24:31;29.50;;;16.20;;
77012;SDS011;67260;53.130;17.982;2024-03-22T14:26:58;27.00;;;15.50;;
77012;SDS011;67260;53.130;17.982;2024-03-22T14:29:25;34.50;;;21.30;;
77012;SDS011;67260;53.130;17.982;2024-03-22T14:31:56;24.70;;;15.00;;
77012;SDS011;67260;53.130;17.982;2024-03-22T14:34:23;21.10;;;12.70;;
77012;SDS011;67260;53.130;17.982;2024-03-22T14:36:50;20.60;;;11.70;;
77012;SDS011;67260;53.130;17.982;2024-03-22T14:39:18;22.30;;;11.60;;
77012;SDS011;67260;53.130;17.982;2024-03-22T14:45:43;20.80;;;10.40;;
77012;SDS011;67260;53.130;17.982;2024-03-22T14:48:10;20.60;;;11.90;;
77012;SDS011;67260;53.130;17.982;2024-03-22T14:50:37;20.40;;;11.00;;
77012;SDS011;67260;53.130;17.982;2024-03-22T14:53:14;18.70;;;10.60;;
77012;SDS011;67260;53.130;17.982;2024-03-22T14:56:59;36.90;;;19.90;;
77012;SDS011;67260;53.130;17.982;2024-03-22T14:59:40;21.00;;;11.80;;
77012;SDS011;67260;53.130;17.982;2024-03-22T15:02:28;18.40;;;10.60;;
77012;SDS011;67260;53.130;17.982;2024-03-22T15:04:59;22.30;;;11.70;;
77012;SDS011;67260;53.130;17.982;2024-03-22T15:07:46;18.90;;;11.30;;
77012;SDS011;67260;53.130;17.982;2024-03-22T15:10:28;21.50;;;11.60;;
77012;SDS011;67260;53.130;17.982;2024-03-22T15:13:04;20.90;;;11.50;;
77012;SDS011;67260;53.130;17.982;2024-03-22T15:15:54;19.90;;;11.20;;
77012;SDS011;67260;53.130;17.982;2024-03-22T15:18:34;20.80;;;11.60;;
77012;SDS011;67260;53.130;17.982;2024-03-22T15:48:25;22.00;;;12.40;;
77012;SDS011;67260;53.130;17.982;2024-03-22T15:50:57;26.40;;;14.30;;
77012;SDS011;67260;53.130;17.982;2024-03-22T15:53:25;23.30;;;13.00;;
77012;SDS011;67260;53.130;17.982;2024-03-22T15:55:51;21.80;;;13.20;;
77012;SDS011;67260;53.130;17.982;2024-03-22T15:58:21;22.20;;;12.40;;
77012;SDS011;67260;53.130;17.982;2024-03-22T16:01:14;20.60;;;11.60;;
77012;SDS011;67260;53.130;17.982;2024-03-22T16:03:43;23.10;;;13.20;;
77012;SDS011;67260;53.130;17.982;2024-03-22T16:06:22;22.10;;;11.60;;
77012;SDS011;67260;53.130;17.982;2024-03-22T16:08:51;21.20;;;11.80;;
77012;SDS011;67260;53.130;17.982;2024-03-22T16:11:18;21.40;;;11.20;;
77012;SDS011;67260;53.130;17.982;2024-03-22T16:13:56;26.10;;;12.80;;
77012;SDS011;67260;53.130;17.982;2024-03-22T16:19:03;25.90;;;13.10;;
77012;SDS011;67260;53.130;17.982;2024-03-22T16:24:41;21.80;;;11.90;;
77012;SDS011;67260;53.130;17.982;2024-03-22T16:27:07;25.10;;;14.00;;
77012;SDS011;67260;53.130;17.982;2024-03-22T16:29:37;23.00;;;12.40;;
77012;SDS011;67260;53.130;17.982;2024-03-22T16:32:22;29.10;;;14.40;;
77012;SDS011;67260;53.130;17.982;2024-03-22T16:34:49;22.80;;;12.50;;
77012;SDS011;67260;53.130;17.982;2024-03-22T16:37:15;26.70;;;14.00;;
77012;SDS011;67260;53.130;17.982;2024-03-22T16:39:42;26.70;;;14.10;;
77012;SDS011;67260;53.130;17.982;2024-03-22T16:42:26;25.40;;;12.80;;
77012;SDS011;67260;53.130;17.982;2024-03-22T16:45:24;29.10;;;13.50;;
77012;SDS011;67260;53.130;17.982;2024-03-22T16:47:57;29.90;;;13.60;;
77012;SDS011;67260;53.130;17.982;2024-03-22T16:50:42;31.60;;;14.40;;
77012;SDS011;67260;53.130;17.982;2024-03-22T16:53:29;29.40;;;14.60;;
77012;SDS011;67260;53.130;17.982;2024-03-22T17:18:00;30.30;;;15.90;;
77012;SDS011;67260;53.130;17.982;2024-03-22T18:01:48;24.60;;;12.90;;
77012;SDS011;67260;53.130;17.982;2024-03-22T18:04:23;22.70;;;11.80;;
77012;SDS011;67260;53.130;17.982;2024-03-22T18:06:53;22.70;;;12.00;;
77012;SDS011;67260;53.130;17.982;2024-03-22T18:25:01;25.00;;;13.80;;
77012;SDS011;67260;53.130;17.982;2024-03-22T18:27:32;22.20;;;12.20;;
77012;SDS011;67260;53.130;17.982;2024-03-22T18:54:43;25.10;;;12.40;;
77012;SDS011;67260;53.130;17.982;2024-03-22T19:13:47;22.80;;;12.10;;
77012;SDS011;67260;53.130;17.982;2024-03-22T19:47:32;22.70;;;13.20;;
77012;SDS011;67260;53.130;17.982;2024-03-22T20:03:06;25.80;;;13.80;;
77012;SDS011;67260;53.130;17.982;2024-03-22T20:06:04;28.00;;;14.50;;
77012;SDS011;67260;53.130;17.982;2024-03-22T20:09:27;28.30;;;13.40;;
77012;SDS011;67260;53.130;17.982;2024-03-22T20:11:58;27.40;;;14.00;;
77012;SDS011;67260;53.130;17.982;2024-03-22T20:14:31;23.50;;;12.90;;
77012;SDS011;67260;53.130;17.982;2024-03-22T20:20:35;25.60;;;12.90;;
77012;SDS011;67260;53.130;17.982;2024-03-22T20:23:01;28.50;;;13.60;;
